sensor_id;sensor_type;location;lat;lon;timestamp;pressure;altitude;pressure_sealevel;temperature;humidity
13604;BME280;24578;48.264;11.436;2023-11-21T00:00:50;95622.75;;;5.60;100.00
13604;BME280;24578;48.264;11.436;2023-11-21T00:06:51;95620.19;;;5.60;100.00
13604;BME280;24578;48.264;11.436;2023-11-21T00:12:53;95622.00;;;5.72;100.00
13604;BME280;24578;48.264;11.436;2023-11-21T00:18:56;95616.84;;;5.72;100.00
13604;BME280;24578;48.264;11.436;2023-11-21T00:24:58;95612.94;;;5.67;100.00
13604;BME280;24578;48.264;11.436;2023-11-21T00:31:00;95602.66;;;5.67;100.00
13604;BME280;24578;48.264;11.436;2023-11-21T00:37:01;95587.06;;;5.70;100.00
13604;BME280;24578;48.264;11.436;2023-11-21T00:43:04;95578.88;;;5.77;100.00
13604;BME280;24578;48.264;11.436;2023-11-21T00:49:07;95573.84;;;5.76;100.00
13604;BME280;24578;48.264;11.436;2023-11-21T00:55:09;95577.03;;;5.79;100.00
13604;BME280;24578;48.264;11.436;2023-11-21T01:01:12;95570.06;;;5.82;100.00
13604;BME280;24578;48.264;11.436;2023-11-21T01:07:13;95565.31;;;5.75;100.00
13604;BME280;24578;48.264;11.436;2023-11-21T01:13:15;95572.13;;;5.62;100.00
13604;BME280;24578;48.264;11.436;2023-11-21T01:19:17;95574.81;;;5.60;100.00
13604;BME280;24578;48.264;11.436;2023-11-21T01:25:19;95577.38;;;5.60;100.00
13604;BME280;24578;48.264;11.436;2023-11-21T01:31:20;95567.81;;;5.62;100.00
13604;BME280;24578;48.264;11.436;2023-11-21T01:37:22;95579.84;;;5.62;100.00
13604;BME280;24578;48.264;11.436;2023-11-21T01:43:24;95579.00;;;5.61;100.00
13604;BME280;24578;48.264;11.436;2023-11-21T01:49:28;95583.13;;;5.64;100.00
13604;BME280;24578;48.264;11.436;2023-11-21T01:55:30;95594.16;;;5.66;100.00
13604;BME280;24578;48.264;11.436;2023-11-21T02:01:31;95607.78;;;5.67;100.00
13604;BME280;24578;48.264;11.436;2023-11-21T02:07:33;95609.25;;;5.71;100.00
13604;BME280;24578;48.264;11.436;2023-11-21T02:13:36;95599.16;;;5.68;100.00
13604;BME280;24578;48.264;11.436;2023-11-21T02:19:38;95592.78;;;5.60;100.00
13604;BME280;24578;48.264;11.436;2023-11-21T02:25:40;95583.25;;;5.48;100.00
13604;BME280;24578;48.264;11.436;2023-11-21T02:31:45;95583.56;;;5.43;100.00
13604;BME280;24578;48.264;11.436;2023-11-21T02:37:49;95572.03;;;5.36;100.00
13604;BME280;24578;48.264;11.436;2023-11-21T02:43:51;95565.16;;;5.37;100.00
13604;BME280;24578;48.264;11.436;2023-11-21T02:49:53;95563.41;;;5.37;100.00
13604;BME280;24578;48.264;11.436;2023-11-21T02:55:54;95571.13;;;5.37;100.00
13604;BME280;24578;48.264;11.436;2023-11-21T03:01:56;95565.25;;;5.35;100.00
13604;BME280;24578;48.264;11.436;2023-11-21T03:07:58;95566.06;;;5.36;100.00
13604;BME280;24578;48.264;11.436;2023-11-21T03:14:00;95571.81;;;5.39;100.00
13604;BME280;24578;48.264;11.436;2023-11-21T03:20:01;95571.81;;;5.39;100.00
13604;BME280;24578;48.264;11.436;2023-11-21T03:26:05;95574.19;;;5.42;100.00
13604;BME280;24578;48.264;11.436;2023-11-21T03:32:09;95568.25;;;5.42;100.00
13604;BME280;24578;48.264;11.436;2023-11-21T03:38:11;95577.59;;;5.43;100.00
13604;BME280;24578;48.264;11.436;2023-11-21T03:44:14;95577.50;;;5.44;100.00
13604;BME280;24578;48.264;11.436;2023-11-21T03:50:16;95572.19;;;5.47;100.00
13604;BME280;24578;48.264;11.436;2023-11-21T03:56:18;95566.31;;;5.45;100.00
13604;BME280;24578;48.264;11.436;2023-11-21T04:02:19;95559.91;;;5.38;100.00
13604;BME280;24578;48.264;11.436;2023-11-21T04:08:21;95561.50;;;5.26;100.00
13604;BME280;24578;48.264;11.436;2023-11-21T04:14:23;95567.56;;;5.25;100.00
13604;BME280;24578;48.264;11.436;2023-11-21T04:20:25;95558.03;;;5.27;100.00
13604;BME280;24578;48.264;11.436;2023-11-21T04:26:26;95564.72;;;5.30;100.00
13604;BME280;24578;48.264;11.436;2023-11-21T04:32:28;95558.03;;;5.27;100.00
13604;BME280;24578;48.264;11.436;2023-11-21T04:38:30;95567.00;;;5.20;100.00
13604;BME280;24578;48.264;11.436;2023-11-21T04:44:38;95570.13;;;5.25;100.00
13604;BME280;24578;48.264;11.436;2023-11-21T04:50:47;95558.06;;;5.13;100.00
13604;BME280;24578;48.264;11.436;2023-11-21T04:56:49;95561.78;;;5.22;100.00
13604;BME280;24578;48.264;11.436;2023-11-21T05:02:52;95570.03;;;5.12;100.00
13604;BME280;24578;48.264;11.436;2023-11-21T05:08:54;95579.75;;;5.07;100.00
13604;BME280;24578;48.264;11.436;2023-11-21T05:14:56;95581.06;;;5.00;100.00
13604;BME280;24578;48.264;11.436;2023-11-21T05:20:59;95579.41;;;4.99;100.00
13604;BME280;24578;48.264;11.436;2023-11-21T05:27:00;95583.34;;;4.90;100.00
13604;BME280;24578;48.264;11.436;2023-11-21T05:33:03;95586.09;;;4.87;100.00
13604;BME280;24578;48.264;11.436;2023-11-21T05:39:05;95595.38;;;4.90;100.00
13604;BME280;24578;48.264;11.436;2023-11-21T05:45:07;95598.28;;;4.83;100.00
13604;BME280;24578;48.264;11.436;2023-11-21T05:51:13;95600.75;;;4.85;100.00
13604;BME280;24578;48.264;11.436;2023-11-21T05:57:15;95596.06;;;4.77;100.00
13604;BME280;24578;48.264;11.436;2023-11-21T06:03:17;95607.34;;;4.89;100.00
13604;BME280;24578;48.264;11.436;2023-11-21T06:09:19;95609.63;;;4.94;100.00
13604;BME280;24578;48.264;11.436;2023-11-21T06:15:22;95619.06;;;4.93;100.00
13604;BME280;24578;48.264;11.436;2023-11-21T06:21:24;95621.63;;;4.93;100.00
13604;BME280;24578;48.264;11.436;2023-11-21T06:27:26;95625.75;;;4.96;100.00
13604;BME280;24578;48.264;11.436;2023-11-21T06:33:28;95623.38;;;4.93;100.00
13604;BME280;24578;48.264;11.436;2023-11-21T06:39:29;95628.31;;;4.81;100.00
13604;BME280;24578;48.264;11.436;2023-11-21T06:45:31;95637.66;;;4.82;100.00
13604;BME280;24578;48.264;11.436;2023-11-21T06:51:33;95655.00;;;4.93;100.00
13604;BME280;24578;48.264;11.436;2023-11-21T06:57:35;95650.03;;;5.05;100.00
13604;BME280;24578;48.264;11.436;2023-11-21T07:03:36;95657.38;;;5.11;100.00
13604;BME280;24578;48.264;11.436;2023-11-21T07:09:39;95661.22;;;5.18;100.00
13604;BME280;24578;48.264;11.436;2023-11-21T07:15:41;95662.50;;;5.25;100.00
13604;BME280;24578;48.264;11.436;2023-11-21T07:21:43;95673.22;;;5.46;100.00
13604;BME280;24578;48.264;11.436;2023-11-21T07:27:45;95665.13;;;5.67;100.00
13604;BME280;24578;48.264;11.436;2023-11-21T07:33:50;95676.78;;;6.00;100.00
13604;BME280;24578;48.264;11.436;2023-11-21T07:39:52;95682.75;;;6.68;100.00
13604;BME280;24578;48.264;11.436;2023-11-21T07:45:57;95681.13;;;7.45;100.00
13604;BME280;24578;48.264;11.436;2023-11-21T07:51:59;95670.84;;;7.82;100.00
13604;BME280;24578;48.264;11.436;2023-11-21T07:58:00;95679.53;;;7.55;100.00
13604;BME280;24578;48.264;11.436;2023-11-21T08:04:02;95685.69;;;7.78;100.00
13604;BME280;24578;48.264;11.436;2023-11-21T08:10:06;95687.91;;;7.59;100.00
13604;BME280;24578;48.264;11.436;2023-11-21T08:16:08;95685.88;;;7.25;100.00
13604;BME280;24578;48.264;11.436;2023-11-21T08:22:10;95690.38;;;6.83;100.00
13604;BME280;24578;48.264;11.436;2023-11-21T08:28:13;95699.44;;;6.89;100.00
13604;BME280;24578;48.264;11.436;2023-11-21T08:34:17;95693.53;;;7.64;100.00
13604;BME280;24578;48.264;11.436;2023-11-21T08:40:20;95692.16;;;9.63;100.00
13604;BME280;24578;48.264;11.436;2023-11-21T08:46:22;95677.34;;;11.68;100.00
13604;BME280;24578;48.264;11.436;2023-11-21T08:52:24;95668.81;;;14.55;71.21
13604;BME280;24578;48.264;11.436;2023-11-21T08:58:26;95676.56;;;13.82;67.83
13604;BME280;24578;48.264;11.436;2023-11-21T09:04:27;95686.69;;;13.38;72.37
13604;BME280;24578;48.264;11.436;2023-11-21T09:10:29;95695.47;;;11.99;84.39
13604;BME280;24578;48.264;11.436;2023-11-21T09:16:31;95700.88;;;11.86;88.93
13604;BME280;24578;48.264;11.436;2023-11-21T09:22:33;95691.97;;;14.12;72.85
13604;BME280;24578;48.264;11.436;2023-11-21T09:28:35;95679.13;;;16.39;58.85
13604;BME280;24578;48.264;11.436;2023-11-21T09:34:39;95696.63;;;15.09;60.74
13604;BME280;24578;48.264;11.436;2023-11-21T09:40:41;95712.66;;;13.48;70.27
13604;BME280;24578;48.264;11.436;2023-11-21T09:46:42;95699.94;;;15.72;60.76
13604;BME280;24578;48.264;11.436;2023-11-21T09:53:04;95692.09;;;17.80;51.89
13604;BME280;24578;48.264;11.436;2023-11-21T09:59:10;95692.50;;;18.32;51.29
13604;BME280;24578;48.264;11.436;2023-11-21T10:05:14;95686.50;;;18.93;50.99
13604;BME280;24578;48.264;11.436;2023-11-21T10:11:17;95685.09;;;18.12;49.97
13604;BME280;24578;48.264;11.436;2023-11-21T10:17:20;95704.06;;;14.67;59.61
13604;BME280;24578;48.264;11.436;2023-11-21T10:23:27;95715.47;;;12.18;73.79
13604;BME280;24578;48.264;11.436;2023-11-21T10:29:29;95715.91;;;11.31;86.73
13604;BME280;24578;48.264;11.436;2023-11-21T10:35:44;95714.84;;;11.33;91.97
13604;BME280;24578;48.264;11.436;2023-11-21T10:41:55;95719.31;;;11.52;96.97
13604;BME280;24578;48.264;11.436;2023-11-21T10:47:56;95722.44;;;11.56;95.33
13604;BME280;24578;48.264;11.436;2023-11-21T10:53:59;95711.75;;;11.18;100.00
13604;BME280;24578;48.264;11.436;2023-11-21T11:00:01;95715.50;;;11.04;100.00
13604;BME280;24578;48.264;11.436;2023-11-21T11:06:05;95706.81;;;10.73;100.00
13604;BME280;24578;48.264;11.436;2023-11-21T11:12:13;95713.59;;;10.85;100.00
13604;BME280;24578;48.264;11.436;2023-11-21T11:18:16;95710.25;;;10.94;100.00
13604;BME280;24578;48.264;11.436;2023-11-21T11:24:42;95697.34;;;10.83;100.00
13604;BME280;24578;48.264;11.436;2023-11-21T11:31:04;95699.03;;;11.05;100.00
13604;BME280;24578;48.264;11.436;2023-11-21T11:37:07;95707.13;;;10.58;100.00
13604;BME280;24578;48.264;11.436;2023-11-21T11:43:10;95710.75;;;10.12;100.00
13604;BME280;24578;48.264;11.436;2023-11-21T11:49:27;95706.59;;;9.65;100.00
13604;BME280;24578;48.264;11.436;2023-11-21T11:55:29;95699.88;;;9.74;100.00
13604;BME280;24578;48.264;11.436;2023-11-21T12:01:32;95707.06;;;9.70;100.00
13604;BME280;24578;48.264;11.436;2023-11-21T12:07:48;95695.16;;;10.02;100.00
13604;BME280;24578;48.264;11.436;2023-11-21T12:13:50;95699.84;;;11.99;98.10
13604;BME280;24578;48.264;11.436;2023-11-21T12:20:02;95694.03;;;11.76;96.55
13604;BME280;24578;48.264;11.436;2023-11-21T12:26:05;95700.13;;;11.34;96.59
13604;BME280;24578;48.264;11.436;2023-11-21T12:32:08;95702.16;;;10.66;100.00
13604;BME280;24578;48.264;11.436;2023-11-21T12:38:09;95693.31;;;10.25;100.00
13604;BME280;24578;48.264;11.436;2023-11-21T12:44:12;95701.03;;;10.36;100.00
13604;BME280;24578;48.264;11.436;2023-11-21T12:50:14;95699.19;;;10.27;100.00
13604;BME280;24578;48.264;11.436;2023-11-21T12:56:16;95707.81;;;10.16;100.00
13604;BME280;24578;48.264;11.436;2023-11-21T13:02:19;95712.91;;;9.95;100.00
13604;BME280;24578;48.264;11.436;2023-11-21T13:08:22;95711.88;;;9.64;100.00
13604;BME280;24578;48.264;11.436;2023-11-21T13:14:29;95718.31;;;9.58;100.00
13604;BME280;24578;48.264;11.436;2023-11-21T13:20:33;95731.34;;;9.68;100.00
13604;BME280;24578;48.264;11.436;2023-11-21T13:26:35;95734.75;;;9.23;100.00
13604;BME280;24578;48.264;11.436;2023-11-21T13:32:38;95737.25;;;9.00;100.00
13604;BME280;24578;48.264;11.436;2023-11-21T13:38:39;95739.28;;;8.72;100.00
13604;BME280;24578;48.264;11.436;2023-11-21T13:44:44;95750.16;;;8.40;100.00
13604;BME280;24578;48.264;11.436;2023-11-21T13:50:49;95739.28;;;8.23;100.00
13604;BME280;24578;48.264;11.436;2023-11-21T13:56:59;95754.88;;;8.09;100.00
13604;BME280;24578;48.264;11.436;2023-11-21T14:03:02;95766.06;;;7.97;100.00
13604;BME280;24578;48.264;11.436;2023-11-21T14:09:07;95780.19;;;7.78;100.00
13604;BME280;24578;48.264;11.436;2023-11-21T14:15:09;95762.88;;;7.80;100.00
13604;BME280;24578;48.264;11.436;2023-11-21T14:21:13;95777.09;;;7.86;100.00
13604;BME280;24578;48.264;11.436;2023-11-21T14:27:16;95787.00;;;7.79;100.00
13604;BME280;24578;48.264;11.436;2023-11-21T14:33:17;95775.66;;;7.95;100.00
13604;BME280;24578;48.264;11.436;2023-11-21T14:39:19;95786.34;;;8.01;100.00
13604;BME280;24578;48.264;11.436;2023-11-21T14:45:31;95794.53;;;7.82;100.00
13604;BME280;24578;48.264;11.436;2023-11-21T14:51:33;95793.91;;;7.66;100.00
13604;BME280;24578;48.264;11.436;2023-11-21T14:57:55;95804.13;;;7.54;100.00
13604;BME280;24578;48.264;11.436;2023-11-21T15:03:57;95799.69;;;7.43;100.00
13604;BME280;24578;48.264;11.436;2023-11-21T15:09:59;95807.81;;;7.37;100.00
13604;BME280;24578;48.264;11.436;2023-11-21T15:16:01;95810.16;;;7.27;100.00
13604;BME280;24578;48.264;11.436;2023-11-21T15:22:09;95813.25;;;7.20;100.00
13604;BME280;24578;48.264;11.436;2023-11-21T15:28:14;95818.81;;;7.13;100.00
13604;BME280;24578;48.264;11.436;2023-11-21T15:34:16;95835.25;;;7.11;100.00
13604;BME280;24578;48.264;11.436;2023-11-21T15:40:19;95832.19;;;7.06;100.00
13604;BME280;24578;48.264;11.436;2023-11-21T15:46:21;95831.22;;;6.94;100.00
13604;BME280;24578;48.264;11.436;2023-11-21T15:52:22;95845.16;;;6.77;100.00
13604;BME280;24578;48.264;11.436;2023-11-21T15:58:24;95845.81;;;6.66;100.00
13604;BME280;24578;48.264;11.436;2023-11-21T16:04:28;95854.66;;;6.62;100.00
13604;BME280;24578;48.264;11.436;2023-11-21T16:10:30;95863.66;;;6.54;100.00
13604;BME280;24578;48.264;11.436;2023-11-21T16:16:32;95869.47;;;6.44;100.00
13604;BME280;24578;48.264;11.436;2023-11-21T16:22:33;95875.72;;;6.39;100.00
13604;BME280;24578;48.264;11.436;2023-11-21T16:28:36;95885.28;;;6.37;100.00
13604;BME280;24578;48.264;11.436;2023-11-21T16:34:38;95899.97;;;6.35;100.00
13604;BME280;24578;48.264;11.436;2023-11-21T16:40:46;95903.72;;;6.44;100.00
13604;BME280;24578;48.264;11.436;2023-11-21T16:46:49;95914.09;;;6.43;100.00
13604;BME280;24578;48.264;11.436;2023-11-21T16:52:55;95915.94;;;6.40;100.00
13604;BME280;24578;48.264;11.436;2023-11-21T16:58:57;95925.66;;;6.35;100.00
13604;BME280;24578;48.264;11.436;2023-11-21T17:04:59;95932.84;;;6.30;100.00
13604;BME280;24578;48.264;11.436;2023-11-21T17:11:02;95944.22;;;6.26;100.00
13604;BME280;24578;48.264;11.436;2023-11-21T17:17:06;95945.31;;;6.22;100.00
13604;BME280;24578;48.264;11.436;2023-11-21T17:23:10;95953.03;;;6.22;100.00
13604;BME280;24578;48.264;11.436;2023-11-21T17:29:13;95951.19;;;6.24;100.00
13604;BME280;24578;48.264;11.436;2023-11-21T17:35:15;95957.53;;;6.18;100.00
13604;BME280;24578;48.264;11.436;2023-11-21T17:41:21;95971.75;;;6.24;100.00
13604;BME280;24578;48.264;11.436;2023-11-21T17:47:24;95964.16;;;6.22;100.00
13604;BME280;24578;48.264;11.436;2023-11-21T17:53:27;95971.88;;;6.22;100.00
13604;BME280;24578;48.264;11.436;2023-11-21T17:59:30;95973.59;;;6.22;100.00
13604;BME280;24578;48.264;11.436;2023-11-21T18:05:32;95978.63;;;6.23;100.00
13604;BME280;24578;48.264;11.436;2023-11-21T18:11:35;95974.44;;;6.22;100.00
13604;BME280;24578;48.264;11.436;2023-11-21T18:17:37;95974.59;;;6.19;100.00
13604;BME280;24578;48.264;11.436;2023-11-21T18:23:41;95974.97;;;6.13;100.00
13604;BME280;24578;48.264;11.436;2023-11-21T18:29:42;95987.34;;;6.06;100.00
13604;BME280;24578;48.264;11.436;2023-11-21T18:35:44;95990.09;;;6.03;100.00
13604;BME280;24578;48.264;11.436;2023-11-21T18:41:47;96002.75;;;6.06;100.00
13604;BME280;24578;48.264;11.436;2023-11-21T18:47:50;96011.94;;;6.11;100.00
13604;BME280;24578;48.264;11.436;2023-11-21T18:53:55;96018.00;;;6.09;100.00
13604;BME280;24578;48.264;11.436;2023-11-21T18:59:56;96024.06;;;6.08;100.00
13604;BME280;24578;48.264;11.436;2023-11-21T19:05:58;96032.78;;;6.06;100.00
13604;BME280;24578;48.264;11.436;2023-11-21T19:12:00;96032.94;;;6.03;100.00
13604;BME280;24578;48.264;11.436;2023-11-21T19:18:02;96037.91;;;5.90;100.00
13604;BME280;24578;48.264;11.436;2023-11-21T19:24:11;96038.63;;;5.77;100.00
13604;BME280;24578;48.264;11.436;2023-11-21T19:30:15;96043.34;;;5.69;100.00
13604;BME280;24578;48.264;11.436;2023-11-21T19:36:18;96059.59;;;5.54;100.00
13604;BME280;24578;48.264;11.436;2023-11-21T19:42:20;96067.00;;;5.44;100.00
13604;BME280;24578;48.264;11.436;2023-11-21T19:48:22;96075.69;;;5.41;100.00
13604;BME280;24578;48.264;11.436;2023-11-21T19:54:25;96082.63;;;5.39;100.00
13604;BME280;24578;48.264;11.436;2023-11-21T20:00:28;96086.84;;;5.40;100.00
13604;BME280;24578;48.264;11.436;2023-11-21T20:06:30;96086.78;;;5.42;100.00
13604;BME280;24578;48.264;11.436;2023-11-21T20:12:41;96097.72;;;5.45;100.00
13604;BME280;24578;48.264;11.436;2023-11-21T20:18:52;96107.16;;;5.45;100.00
13604;BME280;24578;48.264;11.436;2023-11-21T20:24:55;96114.69;;;5.48;100.00
13604;BME280;24578;48.264;11.436;2023-11-21T20:30:58;96120.56;;;5.50;100.00
13604;BME280;24578;48.264;11.436;2023-11-21T20:37:00;96129.00;;;5.52;100.00
13604;BME280;24578;48.264;11.436;2023-11-21T20:43:04;96136.47;;;5.57;100.00
13604;BME280;24578;48.264;11.436;2023-11-21T20:49:06;96142.44;;;5.57;100.00
13604;BME280;24578;48.264;11.436;2023-11-21T20:55:08;96149.31;;;5.57;100.00
13604;BME280;24578;48.264;11.436;2023-11-21T21:01:09;96156.19;;;5.56;100.00
13604;BME280;24578;48.264;11.436;2023-11-21T21:07:13;96152.78;;;5.56;100.00
13604;BME280;24578;48.264;11.436;2023-11-21T21:13:15;96156.25;;;5.55;100.00
13604;BME280;24578;48.264;11.436;2023-11-21T21:19:19;96164.16;;;5.52;100.00
13604;BME280;24578;48.264;11.436;2023-11-21T21:25:20;96181.28;;;5.51;100.00
13604;BME280;24578;48.264;11.436;2023-11-21T21:31:22;96171.84;;;5.52;100.00
13604;BME280;24578;48.264;11.436;2023-11-21T21:37:25;96167.63;;;5.51;100.00
13604;BME280;24578;48.264;11.436;2023-11-21T21:43:28;96171.84;;;5.52;100.00
13604;BME280;24578;48.264;11.436;2023-11-21T21:49:31;96180.38;;;5.52;100.00
13604;BME280;24578;48.264;11.436;2023-11-21T21:55:32;96189.72;;;5.53;100.00
13604;BME280;24578;48.264;11.436;2023-11-21T22:01:34;96181.13;;;5.54;100.00
13604;BME280;24578;48.264;11.436;2023-11-21T22:07:42;96184.34;;;5.58;100.00
13604;BME280;24578;48.264;11.436;2023-11-21T22:13:44;96186.25;;;5.54;100.00
13604;BME280;24578;48.264;11.436;2023-11-21T22:19:45;96198.09;;;5.57;100.00
13604;BME280;24578;48.264;11.436;2023-11-21T22:25:47;96198.94;;;5.57;100.00
13604;BME280;24578;48.264;11.436;2023-11-21T22:31:49;96200.59;;;5.58;100.00
13604;BME280;24578;48.264;11.436;2023-11-21T22:37:51;96199.00;;;5.56;100.00
13604;BME280;24578;48.264;11.436;2023-11-21T22:43:53;96214.41;;;5.56;100.00
13604;BME280;24578;48.264;11.436;2023-11-21T22:49:55;96210.38;;;5.52;100.00
13604;BME280;24578;48.264;11.436;2023-11-21T22:55:57;96225.53;;;5.56;100.00
13604;BME280;24578;48.264;11.436;2023-11-21T23:01:59;96218.78;;;5.54;100.00
13604;BME280;24578;48.264;11.436;2023-11-21T23:08:01;96212.09;;;5.51;100.00
13604;BME280;24578;48.264;11.436;2023-11-21T23:14:03;96214.00;;;5.47;100.00
13604;BME280;24578;48.264;11.436;2023-11-21T23:20:07;96210.16;;;5.39;100.00
13604;BME280;24578;48.264;11.436;2023-11-21T23:26:15;96211.16;;;5.36;100.00
13604;BME280;24578;48.264;11.436;2023-11-21T23:32:17;96218.03;;;5.36;100.00
13604;BME280;24578;48.264;11.436;2023-11-21T23:38:21;96219.84;;;5.33;100.00
13604;BME280;24578;48.264;11.436;2023-11-21T23:44:22;96218.25;;;5.31;100.00
13604;BME280;24578;48.264;11.436;2023-11-21T23:50:26;96214.19;;;5.27;100.00
13604;BME280;24578;48.264;11.436;2023-11-21T23:56:28;96217.75;;;5.24;100.00
